sensor_id;sensor_type;location;lat;lon;timestamp;temperature;humidity
70830;SHT30;58451;51.550;7.208;2022-08-27T00:01:37;18.54;79.44
70830;SHT30;58451;51.550;7.208;2022-08-27T00:04:05;18.53;80.07
70830;SHT30;58451;51.550;7.208;2022-08-27T00:06:32;18.51;79.92
70830;SHT30;58451;51.550;7.208;2022-08-27T00:08:59;18.50;79.51
70830;SHT30;58451;51.550;7.208;2022-08-27T00:11:25;18.48;79.68
70830;SHT30;58451;51.550;7.208;2022-08-27T00:13:53;18.47;79.55
70830;SHT30;58451;51.550;7.208;2022-08-27T00:16:21;18.46;79.79
70830;SHT30;58451;51.550;7.208;2022-08-27T00:18:49;18.44;79.87
70830;SHT30;58451;51.550;7.208;2022-08-27T00:21:16;18.41;80.00
70830;SHT30;58451;51.550;7.208;2022-08-27T00:23:44;18.38;80.12
70830;SHT30;58451;51.550;7.208;2022-08-27T00:26:11;18.35;79.88
70830;SHT30;58451;51.550;7.208;2022-08-27T00:28:40;18.32;80.08
70830;SHT30;58451;51.550;7.208;2022-08-27T00:31:08;18.29;80.12
70830;SHT30;58451;51.550;7.208;2022-08-27T00:33:38;18.28;80.04
70830;SHT30;58451;51.550;7.208;2022-08-27T00:36:06;18.28;80.30
70830;SHT30;58451;51.550;7.208;2022-08-27T00:38:33;18.27;80.45
70830;SHT30;58451;51.550;7.208;2022-08-27T00:41:04;18.24;80.90
70830;SHT30;58451;51.550;7.208;2022-08-27T00:48:57;18.14;81.06
70830;SHT30;58451;51.550;7.208;2022-08-27T00:51:31;18.12;81.38
70830;SHT30;58451;51.550;7.208;2022-08-27T00:54:00;18.08;81.19
70830;SHT30;58451;51.550;7.208;2022-08-27T00:56:31;18.09;80.94
70830;SHT30;58451;51.550;7.208;2022-08-27T00:59:14;18.07;81.23
70830;SHT30;58451;51.550;7.208;2022-08-27T01:01:44;18.06;81.25
70830;SHT30;58451;51.550;7.208;2022-08-27T01:04:31;18.03;81.70
70830;SHT30;58451;51.550;7.208;2022-08-27T01:07:01;17.98;82.42
70830;SHT30;58451;51.550;7.208;2022-08-27T01:09:28;17.90;82.21
70830;SHT30;58451;51.550;7.208;2022-08-27T01:11:56;17.87;82.44
70830;SHT30;58451;51.550;7.208;2022-08-27T01:14:24;17.86;82.07
70830;SHT30;58451;51.550;7.208;2022-08-27T01:16:53;17.84;82.48
70830;SHT30;58451;51.550;7.208;2022-08-27T01:19:27;17.80;82.37
70830;SHT30;58451;51.550;7.208;2022-08-27T01:24:49;17.76;82.62
70830;SHT30;58451;51.550;7.208;2022-08-27T01:27:23;17.74;82.51
70830;SHT30;58451;51.550;7.208;2022-08-27T01:29:54;17.73;82.37
70830;SHT30;58451;51.550;7.208;2022-08-27T01:32:25;17.72;82.78
70830;SHT30;58451;51.550;7.208;2022-08-27T01:34:56;17.72;82.53
70830;SHT30;58451;51.550;7.208;2022-08-27T01:37:25;17.72;82.81
70830;SHT30;58451;51.550;7.208;2022-08-27T01:39:54;17.73;82.76
70830;SHT30;58451;51.550;7.208;2022-08-27T01:45:09;17.73;82.95
70830;SHT30;58451;51.550;7.208;2022-08-27T01:47:41;17.72;83.24
70830;SHT30;58451;51.550;7.208;2022-08-27T01:50:16;17.71;83.31
70830;SHT30;58451;51.550;7.208;2022-08-27T01:52:49;17.70;83.39
70830;SHT30;58451;51.550;7.208;2022-08-27T01:55:18;17.68;83.24
70830;SHT30;58451;51.550;7.208;2022-08-27T01:57:51;17.66;83.39
70830;SHT30;58451;51.550;7.208;2022-08-27T02:00:24;17.64;83.46
70830;SHT30;58451;51.550;7.208;2022-08-27T02:02:58;17.63;83.32
70830;SHT30;58451;51.550;7.208;2022-08-27T02:05:25;17.63;83.31
70830;SHT30;58451;51.550;7.208;2022-08-27T02:07:54;17.63;83.40
70830;SHT30;58451;51.550;7.208;2022-08-27T02:10:22;17.61;83.15
70830;SHT30;58451;51.550;7.208;2022-08-27T02:12:54;17.58;83.04
70830;SHT30;58451;51.550;7.208;2022-08-27T02:15:22;17.60;82.90
70830;SHT30;58451;51.550;7.208;2022-08-27T02:17:50;17.62;82.69
70830;SHT30;58451;51.550;7.208;2022-08-27T02:20:17;17.64;82.44
70830;SHT30;58451;51.550;7.208;2022-08-27T02:22:46;17.65;82.30
70830;SHT30;58451;51.550;7.208;2022-08-27T02:25:13;17.66;82.24
70830;SHT30;58451;51.550;7.208;2022-08-27T02:27:42;17.65;82.28
70830;SHT30;58451;51.550;7.208;2022-08-27T02:30:10;17.66;82.16
70830;SHT30;58451;51.550;7.208;2022-08-27T02:32:40;17.67;81.93
70830;SHT30;58451;51.550;7.208;2022-08-27T02:35:07;17.68;82.00
70830;SHT30;58451;51.550;7.208;2022-08-27T02:37:34;17.69;81.89
70830;SHT30;58451;51.550;7.208;2022-08-27T02:40:04;17.66;81.61
70830;SHT30;58451;51.550;7.208;2022-08-27T02:42:33;17.66;81.48
70830;SHT30;58451;51.550;7.208;2022-08-27T02:45:00;17.65;81.37
70830;SHT30;58451;51.550;7.208;2022-08-27T02:47:27;17.64;81.20
70830;SHT30;58451;51.550;7.208;2022-08-27T02:49:54;17.65;81.16
70830;SHT30;58451;51.550;7.208;2022-08-27T02:52:21;17.63;81.00
70830;SHT30;58451;51.550;7.208;2022-08-27T02:54:50;17.62;81.02
70830;SHT30;58451;51.550;7.208;2022-08-27T02:57:18;17.61;80.99
70830;SHT30;58451;51.550;7.208;2022-08-27T02:59:44;17.61;80.99
70830;SHT30;58451;51.550;7.208;2022-08-27T03:02:11;17.62;80.92
70830;SHT30;58451;51.550;7.208;2022-08-27T03:04:39;17.62;80.79
70830;SHT30;58451;51.550;7.208;2022-08-27T03:07:06;17.62;80.96
70830;SHT30;58451;51.550;7.208;2022-08-27T03:09:43;17.59;81.11
70830;SHT30;58451;51.550;7.208;2022-08-27T03:12:10;17.58;81.08
70830;SHT30;58451;51.550;7.208;2022-08-27T03:14:38;17.57;80.84
70830;SHT30;58451;51.550;7.208;2022-08-27T03:17:05;17.56;80.73
70830;SHT30;58451;51.550;7.208;2022-08-27T03:19:51;17.56;80.77
70830;SHT30;58451;51.550;7.208;2022-08-27T03:22:18;17.55;80.80
70830;SHT30;58451;51.550;7.208;2022-08-27T03:24:45;17.55;80.71
70830;SHT30;58451;51.550;7.208;2022-08-27T03:27:12;17.54;80.72
70830;SHT30;58451;51.550;7.208;2022-08-27T03:29:40;17.54;80.60
70830;SHT30;58451;51.550;7.208;2022-08-27T03:32:07;17.55;80.72
70830;SHT30;58451;51.550;7.208;2022-08-27T03:34:34;17.57;80.68
70830;SHT30;58451;51.550;7.208;2022-08-27T03:37:01;17.60;80.81
70830;SHT30;58451;51.550;7.208;2022-08-27T03:39:27;17.62;80.74
70830;SHT30;58451;51.550;7.208;2022-08-27T03:41:54;17.63;80.57
70830;SHT30;58451;51.550;7.208;2022-08-27T03:44:22;17.65;80.51
70830;SHT30;58451;51.550;7.208;2022-08-27T03:46:51;17.66;80.42
70830;SHT30;58451;51.550;7.208;2022-08-27T03:49:19;17.68;80.45
70830;SHT30;58451;51.550;7.208;2022-08-27T03:51:48;17.71;80.40
70830;SHT30;58451;51.550;7.208;2022-08-27T03:54:16;17.71;80.36
70830;SHT30;58451;51.550;7.208;2022-08-27T03:56:43;17.70;80.27
70830;SHT30;58451;51.550;7.208;2022-08-27T03:59:10;17.71;80.28
70830;SHT30;58451;51.550;7.208;2022-08-27T04:01:37;17.72;80.23
70830;SHT30;58451;51.550;7.208;2022-08-27T04:04:04;17.75;80.12
70830;SHT30;58451;51.550;7.208;2022-08-27T04:06:32;17.75;80.01
70830;SHT30;58451;51.550;7.208;2022-08-27T04:09:00;17.76;80.03
70830;SHT30;58451;51.550;7.208;2022-08-27T04:11:28;17.78;79.91
70830;SHT30;58451;51.550;7.208;2022-08-27T04:13:55;17.78;79.76
70830;SHT30;58451;51.550;7.208;2022-08-27T04:16:22;17.77;79.73
70830;SHT30;58451;51.550;7.208;2022-08-27T04:18:51;17.77;79.73
70830;SHT30;58451;51.550;7.208;2022-08-27T04:21:20;17.78;79.75
70830;SHT30;58451;51.550;7.208;2022-08-27T04:23:48;17.78;79.78
70830;SHT30;58451;51.550;7.208;2022-08-27T04:26:15;17.77;79.68
70830;SHT30;58451;51.550;7.208;2022-08-27T04:28:42;17.74;79.63
70830;SHT30;58451;51.550;7.208;2022-08-27T04:31:14;17.73;79.61
70830;SHT30;58451;51.550;7.208;2022-08-27T04:33:42;17.73;79.51
70830;SHT30;58451;51.550;7.208;2022-08-27T04:36:16;17.73;79.50
70830;SHT30;58451;51.550;7.208;2022-08-27T04:38:44;17.73;79.38
70830;SHT30;58451;51.550;7.208;2022-08-27T04:41:11;17.73;79.32
70830;SHT30;58451;51.550;7.208;2022-08-27T04:43:56;17.71;79.26
70830;SHT30;58451;51.550;7.208;2022-08-27T04:46:28;17.71;79.25
70830;SHT30;58451;51.550;7.208;2022-08-27T04:49:01;17.70;79.08
70830;SHT30;58451;51.550;7.208;2022-08-27T04:51:36;17.70;78.94
70830;SHT30;58451;51.550;7.208;2022-08-27T04:54:06;17.70;78.90
70830;SHT30;58451;51.550;7.208;2022-08-27T04:56:34;17.71;78.89
70830;SHT30;58451;51.550;7.208;2022-08-27T04:59:03;17.73;78.83
70830;SHT30;58451;51.550;7.208;2022-08-27T05:01:33;17.75;78.71
70830;SHT30;58451;51.550;7.208;2022-08-27T05:04:01;17.73;78.57
70830;SHT30;58451;51.550;7.208;2022-08-27T05:06:29;17.73;78.53
70830;SHT30;58451;51.550;7.208;2022-08-27T05:08:56;17.75;78.50
70830;SHT30;58451;51.550;7.208;2022-08-27T05:11:24;17.79;78.54
70830;SHT30;58451;51.550;7.208;2022-08-27T05:13:57;17.81;78.25
70830;SHT30;58451;51.550;7.208;2022-08-27T05:16:24;17.85;78.15
70830;SHT30;58451;51.550;7.208;2022-08-27T05:18:51;17.91;77.95
70830;SHT30;58451;51.550;7.208;2022-08-27T05:21:24;17.95;77.88
70830;SHT30;58451;51.550;7.208;2022-08-27T05:23:58;18.01;77.73
70830;SHT30;58451;51.550;7.208;2022-08-27T05:26:29;18.09;77.39
70830;SHT30;58451;51.550;7.208;2022-08-27T05:28:58;18.16;77.29
70830;SHT30;58451;51.550;7.208;2022-08-27T05:31:26;18.23;77.12
70830;SHT30;58451;51.550;7.208;2022-08-27T05:33:53;18.32;76.97
70830;SHT30;58451;51.550;7.208;2022-08-27T05:36:24;18.41;76.74
70830;SHT30;58451;51.550;7.208;2022-08-27T05:38:58;18.51;76.33
70830;SHT30;58451;51.550;7.208;2022-08-27T05:41:27;18.57;76.12
70830;SHT30;58451;51.550;7.208;2022-08-27T05:44:00;18.63;75.96
70830;SHT30;58451;51.550;7.208;2022-08-27T05:46:51;18.69;75.53
70830;SHT30;58451;51.550;7.208;2022-08-27T05:49:18;18.78;75.51
70830;SHT30;58451;51.550;7.208;2022-08-27T05:51:44;18.90;75.33
70830;SHT30;58451;51.550;7.208;2022-08-27T05:54:11;19.00;75.12
70830;SHT30;58451;51.550;7.208;2022-08-27T05:56:45;19.11;74.81
70830;SHT30;58451;51.550;7.208;2022-08-27T05:59:17;19.16;74.51
70830;SHT30;58451;51.550;7.208;2022-08-27T06:02:03;19.21;74.66
70830;SHT30;58451;51.550;7.208;2022-08-27T06:04:32;19.27;74.56
70830;SHT30;58451;51.550;7.208;2022-08-27T06:06:59;19.34;74.34
70830;SHT30;58451;51.550;7.208;2022-08-27T06:09:27;19.38;74.10
70830;SHT30;58451;51.550;7.208;2022-08-27T06:12:00;19.43;73.92
70830;SHT30;58451;51.550;7.208;2022-08-27T06:14:27;19.44;73.75
70830;SHT30;58451;51.550;7.208;2022-08-27T06:16:55;19.44;73.18
70830;SHT30;58451;51.550;7.208;2022-08-27T06:19:26;19.40;72.99
70830;SHT30;58451;51.550;7.208;2022-08-27T06:21:53;19.37;72.86
70830;SHT30;58451;51.550;7.208;2022-08-27T06:24:34;19.34;72.63
70830;SHT30;58451;51.550;7.208;2022-08-27T06:27:01;19.30;72.91
70830;SHT30;58451;51.550;7.208;2022-08-27T06:29:28;19.27;72.67
70830;SHT30;58451;51.550;7.208;2022-08-27T06:31:55;19.24;72.44
70830;SHT30;58451;51.550;7.208;2022-08-27T06:34:22;19.20;72.38
70830;SHT30;58451;51.550;7.208;2022-08-27T06:36:49;19.18;72.56
70830;SHT30;58451;51.550;7.208;2022-08-27T06:39:16;19.22;72.61
70830;SHT30;58451;51.550;7.208;2022-08-27T06:41:43;19.28;72.38
70830;SHT30;58451;51.550;7.208;2022-08-27T06:44:11;19.32;72.03
70830;SHT30;58451;51.550;7.208;2022-08-27T06:46:39;19.36;71.94
70830;SHT30;58451;51.550;7.208;2022-08-27T06:49:07;19.43;71.87
70830;SHT30;58451;51.550;7.208;2022-08-27T06:51:36;19.52;71.51
70830;SHT30;58451;51.550;7.208;2022-08-27T06:54:08;19.63;71.31
70830;SHT30;58451;51.550;7.208;2022-08-27T06:56:38;19.74;71.13
70830;SHT30;58451;51.550;7.208;2022-08-27T06:59:08;19.88;71.10
70830;SHT30;58451;51.550;7.208;2022-08-27T07:01:41;20.01;70.99
70830;SHT30;58451;51.550;7.208;2022-08-27T07:04:15;20.08;70.39
70830;SHT30;58451;51.550;7.208;2022-08-27T07:06:47;20.15;69.90
70830;SHT30;58451;51.550;7.208;2022-08-27T07:09:14;20.21;69.24
70830;SHT30;58451;51.550;7.208;2022-08-27T07:11:42;20.24;69.12
70830;SHT30;58451;51.550;7.208;2022-08-27T07:14:09;20.29;68.70
70830;SHT30;58451;51.550;7.208;2022-08-27T07:16:36;20.37;68.71
70830;SHT30;58451;51.550;7.208;2022-08-27T07:19:06;20.45;68.83
70830;SHT30;58451;51.550;7.208;2022-08-27T07:21:33;20.56;68.23
70830;SHT30;58451;51.550;7.208;2022-08-27T07:24:01;20.65;68.10
70830;SHT30;58451;51.550;7.208;2022-08-27T07:26:32;20.71;67.92
70830;SHT30;58451;51.550;7.208;2022-08-27T07:29:03;20.81;67.90
70830;SHT30;58451;51.550;7.208;2022-08-27T07:31:31;20.96;67.62
70830;SHT30;58451;51.550;7.208;2022-08-27T07:34:01;21.02;65.94
70830;SHT30;58451;51.550;7.208;2022-08-27T07:36:30;21.02;65.84
70830;SHT30;58451;51.550;7.208;2022-08-27T07:38:59;21.14;66.22
70830;SHT30;58451;51.550;7.208;2022-08-27T07:41:28;21.31;65.86
70830;SHT30;58451;51.550;7.208;2022-08-27T07:44:00;21.43;65.72
70830;SHT30;58451;51.550;7.208;2022-08-27T07:46:53;21.56;64.91
70830;SHT30;58451;51.550;7.208;2022-08-27T07:49:22;21.66;64.90
70830;SHT30;58451;51.550;7.208;2022-08-27T07:51:50;21.80;65.03
70830;SHT30;58451;51.550;7.208;2022-08-27T07:54:17;21.90;63.30
70830;SHT30;58451;51.550;7.208;2022-08-27T07:56:47;21.97;63.46
70830;SHT30;58451;51.550;7.208;2022-08-27T07:59:20;21.93;61.93
70830;SHT30;58451;51.550;7.208;2022-08-27T08:01:52;21.85;62.97
70830;SHT30;58451;51.550;7.208;2022-08-27T08:04:21;22.02;63.46
70830;SHT30;58451;51.550;7.208;2022-08-27T08:06:48;22.17;62.36
70830;SHT30;58451;51.550;7.208;2022-08-27T08:09:16;22.18;61.63
70830;SHT30;58451;51.550;7.208;2022-08-27T08:11:44;22.21;62.31
70830;SHT30;58451;51.550;7.208;2022-08-27T08:14:11;22.35;62.34
70830;SHT30;58451;51.550;7.208;2022-08-27T08:16:38;22.44;60.79
70830;SHT30;58451;51.550;7.208;2022-08-27T08:19:05;22.45;61.08
70830;SHT30;58451;51.550;7.208;2022-08-27T08:21:33;22.58;61.27
70830;SHT30;58451;51.550;7.208;2022-08-27T08:24:01;22.72;60.93
70830;SHT30;58451;51.550;7.208;2022-08-27T08:26:28;22.82;60.90
70830;SHT30;58451;51.550;7.208;2022-08-27T08:28:55;22.93;59.90
70830;SHT30;58451;51.550;7.208;2022-08-27T08:31:22;22.92;59.29
70830;SHT30;58451;51.550;7.208;2022-08-27T08:33:49;22.87;59.37
70830;SHT30;58451;51.550;7.208;2022-08-27T08:36:17;22.82;58.98
70830;SHT30;58451;51.550;7.208;2022-08-27T08:38:45;22.69;59.54
70830;SHT30;58451;51.550;7.208;2022-08-27T08:43:57;22.80;59.05
70830;SHT30;58451;51.550;7.208;2022-08-27T08:49:30;22.88;59.03
70830;SHT30;58451;51.550;7.208;2022-08-27T08:52:43;22.90;59.37
70830;SHT30;58451;51.550;7.208;2022-08-27T08:55:54;23.02;59.39
70830;SHT30;58451;51.550;7.208;2022-08-27T08:58:37;23.15;59.28
70830;SHT30;58451;51.550;7.208;2022-08-27T09:01:14;23.30;58.53
70830;SHT30;58451;51.550;7.208;2022-08-27T09:03:54;23.41;58.56
70830;SHT30;58451;51.550;7.208;2022-08-27T09:06:40;23.49;58.20
70830;SHT30;58451;51.550;7.208;2022-08-27T09:12:18;23.59;56.91
70830;SHT30;58451;51.550;7.208;2022-08-27T09:14:52;23.71;57.52
70830;SHT30;58451;51.550;7.208;2022-08-27T09:17:22;23.90;57.11
70830;SHT30;58451;51.550;7.208;2022-08-27T09:19:50;24.01;56.23
70830;SHT30;58451;51.550;7.208;2022-08-27T09:25:29;24.10;55.28
70830;SHT30;58451;51.550;7.208;2022-08-27T09:28:02;24.06;54.28
70830;SHT30;58451;51.550;7.208;2022-08-27T09:30:58;24.16;55.12
70830;SHT30;58451;51.550;7.208;2022-08-27T09:33:31;24.15;54.34
70830;SHT30;58451;51.550;7.208;2022-08-27T09:36:19;24.11;54.13
70830;SHT30;58451;51.550;7.208;2022-08-27T09:38:58;24.15;54.75
70830;SHT30;58451;51.550;7.208;2022-08-27T09:41:40;24.17;54.55
70830;SHT30;58451;51.550;7.208;2022-08-27T09:44:16;24.14;54.64
70830;SHT30;58451;51.550;7.208;2022-08-27T09:47:00;24.11;54.77
70830;SHT30;58451;51.550;7.208;2022-08-27T09:49:29;24.15;53.79
70830;SHT30;58451;51.550;7.208;2022-08-27T09:51:59;24.11;54.14
70830;SHT30;58451;51.550;7.208;2022-08-27T09:57:05;24.22;53.88
70830;SHT30;58451;51.550;7.208;2022-08-27T09:59:35;24.30;54.04
70830;SHT30;58451;51.550;7.208;2022-08-27T10:02:16;24.32;53.98
70830;SHT30;58451;51.550;7.208;2022-08-27T10:04:48;24.37;53.64
70830;SHT30;58451;51.550;7.208;2022-08-27T10:10:07;24.51;52.71
70830;SHT30;58451;51.550;7.208;2022-08-27T10:13:15;24.54;52.76
70830;SHT30;58451;51.550;7.208;2022-08-27T10:21:59;25.12;51.57
70830;SHT30;58451;51.550;7.208;2022-08-27T10:30:24;25.51;50.70
70830;SHT30;58451;51.550;7.208;2022-08-27T10:50:46;25.04;47.44
70830;SHT30;58451;51.550;7.208;2022-08-27T10:53:21;25.12;46.80
70830;SHT30;58451;51.550;7.208;2022-08-27T10:55:55;25.30;47.40
70830;SHT30;58451;51.550;7.208;2022-08-27T11:02:13;26.28;46.66
70830;SHT30;58451;51.550;7.208;2022-08-27T11:05:21;26.61;46.56
70830;SHT30;58451;51.550;7.208;2022-08-27T11:08:23;26.75;46.15
70830;SHT30;58451;51.550;7.208;2022-08-27T11:11:22;26.81;45.33
70830;SHT30;58451;51.550;7.208;2022-08-27T11:14:28;26.78;44.88
70830;SHT30;58451;51.550;7.208;2022-08-27T11:17:17;26.60;44.90
70830;SHT30;58451;51.550;7.208;2022-08-27T11:20:18;26.39;44.87
70830;SHT30;58451;51.550;7.208;2022-08-27T11:23:14;26.32;44.47
70830;SHT30;58451;51.550;7.208;2022-08-27T11:25:56;26.15;44.46
70830;SHT30;58451;51.550;7.208;2022-08-27T11:29:16;26.10;44.55
70830;SHT30;58451;51.550;7.208;2022-08-27T11:34:02;25.81;44.68
70830;SHT30;58451;51.550;7.208;2022-08-27T11:42:36;25.71;44.96
70830;SHT30;58451;51.550;7.208;2022-08-27T11:45:33;25.63;44.80
70830;SHT30;58451;51.550;7.208;2022-08-27T11:48:17;25.76;44.92
70830;SHT30;58451;51.550;7.208;2022-08-27T11:53:57;26.31;44.56
70830;SHT30;58451;51.550;7.208;2022-08-27T11:56:42;26.37;43.46
70830;SHT30;58451;51.550;7.208;2022-08-27T11:59:27;26.20;43.66
70830;SHT30;58451;51.550;7.208;2022-08-27T12:07:52;26.49;44.02
70830;SHT30;58451;51.550;7.208;2022-08-27T12:10:29;26.42;43.76
70830;SHT30;58451;51.550;7.208;2022-08-27T12:19:59;26.32;43.79
70830;SHT30;58451;51.550;7.208;2022-08-27T12:23:09;26.25;43.45
70830;SHT30;58451;51.550;7.208;2022-08-27T12:28:54;26.36;43.77
70830;SHT30;58451;51.550;7.208;2022-08-27T12:32:01;26.31;43.49
70830;SHT30;58451;51.550;7.208;2022-08-27T12:37:28;26.01;43.62
70830;SHT30;58451;51.550;7.208;2022-08-27T12:40:18;25.97;43.88
70830;SHT30;58451;51.550;7.208;2022-08-27T12:42:50;26.04;43.71
70830;SHT30;58451;51.550;7.208;2022-08-27T12:45:33;26.01;43.45
70830;SHT30;58451;51.550;7.208;2022-08-27T12:48:11;25.96;43.52
70830;SHT30;58451;51.550;7.208;2022-08-27T12:50:41;26.00;43.54
70830;SHT30;58451;51.550;7.208;2022-08-27T13:05:20;26.40;42.94
70830;SHT30;58451;51.550;7.208;2022-08-27T13:07:49;26.27;42.12
70830;SHT30;58451;51.550;7.208;2022-08-27T13:10:31;26.02;42.61
70830;SHT30;58451;51.550;7.208;2022-08-27T13:13:06;25.98;43.12
70830;SHT30;58451;51.550;7.208;2022-08-27T13:15:41;26.11;43.35
70830;SHT30;58451;51.550;7.208;2022-08-27T13:18:18;26.28;42.88
70830;SHT30;58451;51.550;7.208;2022-08-27T13:20:47;26.23;42.23
70830;SHT30;58451;51.550;7.208;2022-08-27T13:23:19;26.18;42.63
70830;SHT30;58451;51.550;7.208;2022-08-27T13:25:57;26.21;42.20
70830;SHT30;58451;51.550;7.208;2022-08-27T13:28:37;26.38;42.39
70830;SHT30;58451;51.550;7.208;2022-08-27T13:31:08;26.58;41.73
70830;SHT30;58451;51.550;7.208;2022-08-27T13:33:37;26.63;40.98
70830;SHT30;58451;51.550;7.208;2022-08-27T13:36:06;26.73;41.41
70830;SHT30;58451;51.550;7.208;2022-08-27T13:38:42;26.90;40.23
70830;SHT30;58451;51.550;7.208;2022-08-27T13:41:34;26.94;40.49
70830;SHT30;58451;51.550;7.208;2022-08-27T13:44:11;27.07;40.50
70830;SHT30;58451;51.550;7.208;2022-08-27T13:46:48;27.16;39.78
70830;SHT30;58451;51.550;7.208;2022-08-27T13:49:25;26.94;40.33
70830;SHT30;58451;51.550;7.208;2022-08-27T13:52:01;26.71;40.82
70830;SHT30;58451;51.550;7.208;2022-08-27T13:54:33;26.52;40.96
70830;SHT30;58451;51.550;7.208;2022-08-27T13:57:07;26.31;41.37
70830;SHT30;58451;51.550;7.208;2022-08-27T13:59:37;26.16;41.73
70830;SHT30;58451;51.550;7.208;2022-08-27T14:04:41;25.82;42.46
70830;SHT30;58451;51.550;7.208;2022-08-27T14:09:47;25.57;43.17
70830;SHT30;58451;51.550;7.208;2022-08-27T14:18:19;25.36;43.85
70830;SHT30;58451;51.550;7.208;2022-08-27T14:21:08;25.28;44.09
70830;SHT30;58451;51.550;7.208;2022-08-27T14:23:35;25.28;44.10
70830;SHT30;58451;51.550;7.208;2022-08-27T14:26:02;25.27;44.17
70830;SHT30;58451;51.550;7.208;2022-08-27T14:28:29;25.26;44.34
70830;SHT30;58451;51.550;7.208;2022-08-27T14:30:57;25.29;44.18
70830;SHT30;58451;51.550;7.208;2022-08-27T14:33:24;25.35;44.27
70830;SHT30;58451;51.550;7.208;2022-08-27T14:35:51;25.37;44.10
70830;SHT30;58451;51.550;7.208;2022-08-27T14:38:19;25.26;44.20
70830;SHT30;58451;51.550;7.208;2022-08-27T14:40:50;25.19;44.46
70830;SHT30;58451;51.550;7.208;2022-08-27T14:43:20;25.19;44.61
70830;SHT30;58451;51.550;7.208;2022-08-27T14:45:48;25.20;44.67
70830;SHT30;58451;51.550;7.208;2022-08-27T14:48:18;25.17;44.79
70830;SHT30;58451;51.550;7.208;2022-08-27T14:50:54;25.17;44.78
70830;SHT30;58451;51.550;7.208;2022-08-27T14:53:23;25.23;44.85
70830;SHT30;58451;51.550;7.208;2022-08-27T14:55:51;25.28;44.72
70830;SHT30;58451;51.550;7.208;2022-08-27T14:58:19;25.25;44.46
70830;SHT30;58451;51.550;7.208;2022-08-27T15:00:47;25.23;44.49
70830;SHT30;58451;51.550;7.208;2022-08-27T15:03:14;25.28;44.58
70830;SHT30;58451;51.550;7.208;2022-08-27T15:05:41;25.38;44.71
70830;SHT30;58451;51.550;7.208;2022-08-27T15:08:08;25.54;44.39
70830;SHT30;58451;51.550;7.208;2022-08-27T15:10:39;25.66;44.32
70830;SHT30;58451;51.550;7.208;2022-08-27T15:13:06;25.70;44.12
70830;SHT30;58451;51.550;7.208;2022-08-27T15:15:36;25.58;43.03
70830;SHT30;58451;51.550;7.208;2022-08-27T15:18:04;25.37;43.62
70830;SHT30;58451;51.550;7.208;2022-08-27T15:20:31;25.32;44.03
70830;SHT30;58451;51.550;7.208;2022-08-27T15:22:58;25.33;44.09
70830;SHT30;58451;51.550;7.208;2022-08-27T15:25:26;25.29;44.20
70830;SHT30;58451;51.550;7.208;2022-08-27T15:27:55;25.27;44.17
70830;SHT30;58451;51.550;7.208;2022-08-27T15:30:23;25.22;44.03
70830;SHT30;58451;51.550;7.208;2022-08-27T15:32:54;25.10;44.29
70830;SHT30;58451;51.550;7.208;2022-08-27T15:35:23;25.04;44.45
70830;SHT30;58451;51.550;7.208;2022-08-27T15:37:53;25.01;44.61
70830;SHT30;58451;51.550;7.208;2022-08-27T15:40:23;24.99;44.66
70830;SHT30;58451;51.550;7.208;2022-08-27T15:42:55;24.89;44.61
70830;SHT30;58451;51.550;7.208;2022-08-27T15:45:27;24.86;44.75
70830;SHT30;58451;51.550;7.208;2022-08-27T15:47:57;24.75;44.40
70830;SHT30;58451;51.550;7.208;2022-08-27T15:50:25;24.59;44.68
70830;SHT30;58451;51.550;7.208;2022-08-27T15:52:57;24.51;44.43
70830;SHT30;58451;51.550;7.208;2022-08-27T15:55:29;24.44;44.56
70830;SHT30;58451;51.550;7.208;2022-08-27T15:58:00;24.36;44.51
70830;SHT30;58451;51.550;7.208;2022-08-27T16:00:29;24.27;44.55
70830;SHT30;58451;51.550;7.208;2022-08-27T16:02:59;24.23;44.79
70830;SHT30;58451;51.550;7.208;2022-08-27T16:05:31;24.23;44.99
70830;SHT30;58451;51.550;7.208;2022-08-27T16:08:00;24.23;44.74
70830;SHT30;58451;51.550;7.208;2022-08-27T16:10:28;24.08;44.79
70830;SHT30;58451;51.550;7.208;2022-08-27T16:12:55;24.01;45.15
70830;SHT30;58451;51.550;7.208;2022-08-27T16:15:22;23.93;45.48
70830;SHT30;58451;51.550;7.208;2022-08-27T16:17:54;23.81;45.91
70830;SHT30;58451;51.550;7.208;2022-08-27T16:20:23;23.65;46.24
70830;SHT30;58451;51.550;7.208;2022-08-27T16:22:51;23.57;46.57
70830;SHT30;58451;51.550;7.208;2022-08-27T16:25:19;23.50;46.81
70830;SHT30;58451;51.550;7.208;2022-08-27T16:27:49;23.47;46.93
70830;SHT30;58451;51.550;7.208;2022-08-27T16:30:17;23.42;47.13
70830;SHT30;58451;51.550;7.208;2022-08-27T16:32:49;23.38;47.21
70830;SHT30;58451;51.550;7.208;2022-08-27T16:35:18;23.30;47.34
70830;SHT30;58451;51.550;7.208;2022-08-27T16:37:46;23.23;47.56
70830;SHT30;58451;51.550;7.208;2022-08-27T16:40:14;23.17;47.62
70830;SHT30;58451;51.550;7.208;2022-08-27T16:42:42;23.10;47.74
70830;SHT30;58451;51.550;7.208;2022-08-27T16:45:16;23.01;47.93
70830;SHT30;58451;51.550;7.208;2022-08-27T16:47:50;22.95;48.14
70830;SHT30;58451;51.550;7.208;2022-08-27T16:50:40;22.91;48.40
70830;SHT30;58451;51.550;7.208;2022-08-27T16:53:14;22.87;48.39
70830;SHT30;58451;51.550;7.208;2022-08-27T16:55:44;22.81;48.53
70830;SHT30;58451;51.550;7.208;2022-08-27T16:58:17;22.78;48.71
70830;SHT30;58451;51.550;7.208;2022-08-27T17:00:50;22.73;48.81
70830;SHT30;58451;51.550;7.208;2022-08-27T17:03:23;22.70;49.11
70830;SHT30;58451;51.550;7.208;2022-08-27T17:05:51;22.71;49.17
70830;SHT30;58451;51.550;7.208;2022-08-27T17:08:19;22.69;49.15
70830;SHT30;58451;51.550;7.208;2022-08-27T17:10:52;22.66;49.06
70830;SHT30;58451;51.550;7.208;2022-08-27T17:13:23;22.61;49.08
70830;SHT30;58451;51.550;7.208;2022-08-27T17:15:55;22.58;49.05
70830;SHT30;58451;51.550;7.208;2022-08-27T17:18:23;22.52;49.06
70830;SHT30;58451;51.550;7.208;2022-08-27T17:20:53;22.49;49.10
70830;SHT30;58451;51.550;7.208;2022-08-27T17:23:29;22.44;49.14
70830;SHT30;58451;51.550;7.208;2022-08-27T17:26:04;22.37;49.28
70830;SHT30;58451;51.550;7.208;2022-08-27T17:28:34;22.31;49.40
70830;SHT30;58451;51.550;7.208;2022-08-27T17:31:07;22.23;49.49
70830;SHT30;58451;51.550;7.208;2022-08-27T17:33:38;22.20;49.67
70830;SHT30;58451;51.550;7.208;2022-08-27T17:36:11;22.16;50.00
70830;SHT30;58451;51.550;7.208;2022-08-27T17:38:40;22.11;50.07
70830;SHT30;58451;51.550;7.208;2022-08-27T17:41:29;22.07;50.21
70830;SHT30;58451;51.550;7.208;2022-08-27T17:44:08;22.02;50.41
70830;SHT30;58451;51.550;7.208;2022-08-27T17:46:48;21.96;50.49
70830;SHT30;58451;51.550;7.208;2022-08-27T17:49:16;21.92;50.53
70830;SHT30;58451;51.550;7.208;2022-08-27T17:51:44;21.90;50.63
70830;SHT30;58451;51.550;7.208;2022-08-27T17:56:46;21.84;50.87
70830;SHT30;58451;51.550;7.208;2022-08-27T17:59:14;21.82;50.90